Time;durP1;ratioP1;P1;durP2;ratioP2;P2;SDS_P1;SDS_P2;PMS_P1;PMS_P2;Temp;Humidity;BMP_temperature;BMP_pressure;BME280_temperature;BME280_humidity;BME280_pressure;Samples;Min_cycle;Max_cycle;Signal;HPM_P1;HPM_P2
2021/05/31 00:03:14;;;;;;;14.60;6.13;;;;;;;10.99;60.31;101619.44;5186618;55;1140497;-77
2021/05/31 00:08:20;;;;;;;12.47;5.75;;;;;;;11.02;60.91;101613.07;5186620;55;1140649;-75
2021/05/31 00:13:27;;;;;;;15.43;5.97;;;;;;;11.07;61.07;101605.23;5186538;55;1140607;-79
2021/05/31 00:18:33;;;;;;;13.40;6.00;;;;;;;11.11;61.07;101603.25;5185706;55;1140493;-79
2021/05/31 00:23:39;;;;;;;14.63;7.10;;;;;;;11.14;61.23;101603.06;5185963;55;1140495;-80
2021/05/31 00:28:45;;;;;;;23.43;8.67;;;;;;;11.05;61.19;101599.18;5185759;55;1140426;-76
2021/05/31 00:33:51;;;;;;;14.43;8.73;;;;;;;11.08;61.32;101590.20;5185869;55;1140630;-75
2021/05/31 00:38:58;;;;;;;13.27;7.70;;;;;;;11.03;61.38;101597.57;5185884;55;1140710;-76
2021/05/31 00:44:04;;;;;;;12.53;7.40;;;;;;;10.87;60.94;101599.84;5185815;55;1140900;-77
2021/05/31 00:49:10;;;;;;;11.67;6.63;;;;;;;10.66;61.27;101582.66;5185975;55;1141328;-77
2021/05/31 00:54:18;;;;;;;12.00;4.60;;;;;;;10.51;61.38;101587.55;5186019;55;1140795;-79
2021/05/31 00:59:23;;;;;;;13.10;5.13;;;;;;;10.47;61.45;101589.99;5186156;55;1140859;-75
2021/05/31 01:04:29;;;;;;;9.10;5.23;;;;;;;10.41;61.70;101583.73;5185571;55;1141242;-74
2021/05/31 01:09:57;;;;;;;9.43;5.23;;;;;;;9.99;61.63;101579.16;5185822;55;1138923;-76
2021/05/31 01:15:15;;;;;;;9.90;4.03;;;;;;;9.69;62.15;101581.78;5185921;55;1136783;-78
2021/05/31 01:20:53;;;;;;;11.50;4.10;;;;;;;9.41;62.81;101580.70;5186526;55;1136822;-78
2021/05/31 01:26:19;;;;;;;8.53;3.97;;;;;;;9.03;63.18;101586.75;5185751;55;1138963;-78
2021/05/31 01:31:49;;;;;;;10.13;3.85;;;;;;;8.90;63.91;101585.71;5186286;55;1134832;-76
2021/05/31 01:37:03;;;;;;;4.67;3.03;;;;;;;8.73;64.12;101580.48;5185653;55;1139167;-72
2021/05/31 01:42:10;;;;;;;9.43;3.80;;;;;;;8.69;64.69;101578.50;5186164;55;1143179;-79
2021/05/31 01:47:18;;;;;;;9.80;4.53;;;;;;;8.78;64.90;101574.50;5186369;55;1137091;-80
2021/05/31 01:52:27;;;;;;;9.05;3.47;;;;;;;8.75;64.92;101575.52;5185984;55;1137075;-75
2021/05/31 01:57:33;;;;;;;6.87;3.90;;;;;;;8.62;64.84;101578.88;5186089;55;1136377;-78
2021/05/31 02:02:40;;;;;;;7.07;3.40;;;;;;;8.52;65.21;101571.94;5186301;55;1134405;-75
2021/05/31 02:07:47;;;;;;;8.37;4.10;;;;;;;8.45;65.40;101573.17;5186042;55;1134322;-78
2021/05/31 02:12:57;;;;;;;9.63;4.17;;;;;;;8.36;65.59;101577.61;5185885;55;1134363;-76
2021/05/31 02:18:16;;;;;;;7.70;3.83;;;;;;;8.18;65.68;101575.87;5185817;55;1136392;-79
2021/05/31 02:23:23;;;;;;;10.08;3.80;;;;;;;8.10;66.11;101573.15;5185913;55;1136577;-79
2021/05/31 02:28:30;;;;;;;8.53;5.15;;;;;;;8.33;66.78;101565.91;5185494;55;1138798;-79
2021/05/31 02:33:37;;;;;;;11.03;5.33;;;;;;;8.41;66.58;101565.87;5185679;55;1136533;-75
2021/05/31 02:38:42;;;;;;;17.63;9.00;;;;;;;8.61;67.10;101554.30;5185887;55;1138825;-78
2021/05/31 02:43:48;;;;;;;14.27;6.10;;;;;;;8.79;66.87;101552.00;5185625;55;1138566;-78
2021/05/31 02:48:54;;;;;;;13.13;6.87;;;;;;;8.89;66.46;101547.54;5185725;55;1138864;-75
2021/05/31 02:54:00;;;;;;;11.50;6.77;;;;;;;8.91;66.26;101542.57;5209688;55;1136740;-79
2021/05/31 02:59:05;;;;;;;17.37;7.37;;;;;;;8.84;65.94;101544.32;5212059;55;1136748;-78
2021/05/31 03:04:11;;;;;;;9.53;4.87;;;;;;;8.85;66.26;101554.79;5212093;55;1137116;-76
2021/05/31 03:09:17;;;;;;;15.13;4.22;;;;;;;8.70;65.49;101557.78;5212307;55;1134835;-75
2021/05/31 03:14:22;;;;;;;6.25;3.55;;;;;;;8.43;65.47;101560.06;5212226;55;1138969;-75
2021/05/31 03:19:28;;;;;;;5.90;3.93;;;;;;;8.23;65.76;101568.59;5212108;55;1137058;-74
2021/05/31 03:24:33;;;;;;;4.17;3.70;;;;;;;8.08;66.29;101567.13;5212023;55;1137157;-78
2021/05/31 03:29:39;;;;;;;9.27;4.50;;;;;;;8.17;67.13;101560.53;5211980;55;1137033;-75
2021/05/31 03:34:44;;;;;;;7.80;4.50;;;;;;;8.33;67.37;101565.91;5212022;55;1136974;-74
2021/05/31 03:39:50;;;;;;;14.17;5.80;;;;;;;8.26;67.11;101565.31;5212020;55;1134659;-77
2021/05/31 03:44:56;;;;;;;14.00;6.27;;;;;;;8.15;67.32;101566.34;5212096;55;1137055;-80
2021/05/31 03:50:04;;;;;;;10.77;4.97;;;;;;;8.09;67.84;101560.94;5212711;55;1137074;-75
2021/05/31 03:55:11;;;;;;;9.20;4.87;;;;;;;8.09;68.21;101562.25;5212571;56;1139169;-75
2021/05/31 04:00:17;;;;;;;9.63;4.92;;;;;;;8.07;68.57;101556.20;5212563;56;1136871;-81
2021/05/31 04:05:26;;;;;;;11.28;5.50;;;;;;;8.10;68.85;101561.30;5212883;55;1136987;-76
2021/05/31 04:15:56;;;;;;;9.63;4.57;;;;;;;8.09;69.94;101561.40;5212261;56;1138985;-79
2021/05/31 04:21:03;;;;;;;8.30;4.53;;;;;;;8.03;70.67;101565.19;5212719;55;1137126;-75
2021/05/31 04:26:09;;;;;;;4.20;3.37;;;;;;;8.08;71.11;101572.41;5212554;55;1136787;-80
2021/05/31 04:31:15;;;;;;;9.87;4.40;;;;;;;8.30;71.50;101569.51;5188899;56;1136867;-79
2021/05/31 04:36:21;;;;;;;7.62;3.77;;;;;;;8.61;71.81;101565.31;5212590;55;1137078;-77
2021/05/31 04:41:27;;;;;;;7.85;3.87;;;;;;;8.86;71.66;101560.92;5212593;55;1136909;-77
2021/05/31 04:46:34;;;;;;;10.50;4.30;;;;;;;9.03;71.43;101555.09;5212531;56;1136769;-78
2021/05/31 04:51:40;;;;;;;9.23;4.30;;;;;;;9.17;71.50;101557.81;5212274;55;1139112;-81
2021/05/31 04:56:46;;;;;;;9.70;3.57;;;;;;;9.24;71.48;101558.34;5212288;55;1137060;-79
2021/05/31 05:01:52;;;;;;;13.43;3.67;;;;;;;9.38;71.82;101557.11;5212354;55;1136954;-75
2021/05/31 05:06:58;;;;;;;7.47;4.23;;;;;;;9.60;72.06;101550.62;5212216;56;1138945;-73
2021/05/31 05:12:05;;;;;;;7.77;4.27;;;;;;;9.76;72.35;101546.16;5212605;55;1136863;-76
2021/05/31 05:17:11;;;;;;;6.37;4.27;;;;;;;9.94;72.63;101545.54;5211410;56;1191511;-76
2021/05/31 05:22:17;;;;;;;6.30;4.00;;;;;;;10.16;72.69;101555.24;5212454;56;1136825;-76
2021/05/31 05:27:23;;;;;;;6.15;3.37;;;;;;;10.40;72.78;101548.97;5212413;56;1138827;-80
2021/05/31 05:32:29;;;;;;;9.43;4.60;;;;;;;10.63;72.61;101552.41;5211640;56;1139188;-79
2021/05/31 05:37:42;;;;;;;8.33;3.80;;;;;;;10.81;72.17;101555.25;5210797;55;1138381;-76
2021/05/31 05:42:59;;;;;;;11.00;4.13;;;;;;;10.92;72.00;101544.84;5209286;55;1138877;-73
2021/05/31 05:47:50;;;;;;;8.63;3.52;;;;;;;11.13;72.30;101546.61;5207571;55;1140528;-75
2021/05/31 05:52:56;;;;;;;6.40;3.73;;;;;;;11.30;71.94;101546.86;5210194;55;1138474;-77
2021/05/31 05:58:03;;;;;;;5.97;4.00;;;;;;;11.51;72.02;101548.58;5191818;55;1138587;-74
2021/05/31 06:03:08;;;;;;;7.83;4.20;;;;;;;11.72;71.52;101548.98;5185059;55;1138447;-75
2021/05/31 06:08:14;;;;;;;10.10;3.30;;;;;;;11.94;71.66;101543.97;5165761;55;1139112;-75
2021/05/31 06:13:23;;;;;;;9.53;3.83;;;;;;;12.18;70.71;101546.80;5185700;55;1140434;-73
2021/05/31 06:18:29;;;;;;;11.05;3.87;;;;;;;12.31;71.18;101553.80;5185817;55;1138771;-78
2021/05/31 06:23:35;;;;;;;7.40;4.20;;;;;;;12.55;71.37;101545.95;5185560;55;1140689;-80
2021/05/31 06:28:42;;;;;;;7.33;4.17;;;;;;;12.75;70.96;101534.42;5186127;55;1138617;-80
2021/05/31 06:33:47;;;;;;;10.20;4.03;;;;;;;12.91;70.32;101531.05;5185978;55;1138602;-76
2021/05/31 06:38:53;;;;;;;5.57;3.73;;;;;;;13.03;70.03;101535.48;5185626;55;1140701;-77
2021/05/31 06:43:58;;;;;;;7.40;3.50;;;;;;;13.21;69.62;101535.52;5185828;55;1138605;-80
2021/05/31 06:49:05;;;;;;;8.20;3.57;;;;;;;13.40;69.66;101540.35;5185607;55;1138480;-73
2021/05/31 06:54:12;;;;;;;4.70;3.37;;;;;;;13.61;69.49;101537.91;5185714;55;1138348;-78
2021/05/31 06:59:18;;;;;;;6.40;3.40;;;;;;;13.78;69.03;101531.34;5202023;55;1138637;-76
2021/05/31 07:04:23;;;;;;;9.20;3.33;;;;;;;13.98;69.12;101528.87;5212102;55;1138444;-76
2021/05/31 07:09:29;;;;;;;8.25;3.75;;;;;;;14.16;68.52;101526.64;5212080;55;1138358;-73
2021/05/31 07:14:37;;;;;;;6.27;3.90;;;;;;;14.25;67.70;101522.41;5211998;55;1138664;-76
2021/05/31 07:19:44;;;;;;;6.10;3.80;;;;;;;14.45;68.34;101515.10;5208289;56;1138487;-78
2021/05/31 07:24:51;;;;;;;9.70;3.57;;;;;;;14.63;67.33;101524.31;5212503;55;1138403;-79
2021/05/31 07:29:57;;;;;;;8.33;4.03;;;;;;;14.78;67.54;101519.11;5212613;55;1138396;-75
2021/05/31 07:35:06;;;;;;;10.10;3.47;;;;;;;14.97;67.66;101513.14;5212666;55;1138505;-75
2021/05/31 07:40:14;;;;;;;9.00;3.13;;;;;;;15.16;66.42;101511.66;5212214;55;1140666;-82
2021/05/31 07:45:21;;;;;;;8.00;3.40;;;;;;;15.34;66.46;101517.68;5212604;55;1138384;-75
2021/05/31 07:50:27;;;;;;;3.77;2.63;;;;;;;15.60;65.57;101516.05;5212603;55;1138587;-74
2021/05/31 07:55:33;;;;;;;13.13;2.80;;;;;;;15.85;66.04;101515.72;5212393;55;1138433;-79
2021/05/31 08:00:40;;;;;;;8.53;2.43;;;;;;;16.11;64.48;101516.17;5197202;55;1140717;-77
2021/05/31 08:05:46;;;;;;;6.33;2.77;;;;;;;16.26;64.40;101500.67;5186181;55;1138535;-73
2021/05/31 08:10:52;;;;;;;2.23;1.80;;;;;;;16.48;64.29;101507.20;5186312;55;1138712;-72
2021/05/31 08:15:58;;;;;;;6.07;2.23;;;;;;;16.68;62.30;101499.64;5186079;55;1138605;-76
2021/05/31 08:21:05;;;;;;;3.23;2.00;;;;;;;16.79;62.01;101498.23;5185899;55;1138929;-78
2021/05/31 08:26:11;;;;;;;4.23;1.70;;;;;;;16.96;61.03;101494.55;5185938;55;1139219;-78
2021/05/31 08:31:18;;;;;;;4.10;1.50;;;;;;;17.12;61.18;101498.86;5186025;55;1139063;-72
2021/05/31 08:36:25;;;;;;;9.03;1.85;;;;;;;17.26;60.46;101497.65;5186211;55;1138869;-78
2021/05/31 08:41:31;;;;;;;3.87;1.53;;;;;;;17.41;58.89;101497.59;5185933;55;1139180;-81
2021/05/31 08:46:37;;;;;;;3.37;1.50;;;;;;;17.47;57.41;101496.53;5185854;55;1139452;-77
2021/05/31 08:51:43;;;;;;;3.93;1.87;;;;;;;17.64;56.58;101498.19;5185912;55;1139038;-74
2021/05/31 08:56:50;;;;;;;5.93;1.60;;;;;;;17.50;55.86;101504.77;5185898;55;1138891;-80
2021/05/31 09:01:57;;;;;;;4.37;2.17;;;;;;;17.44;55.29;101493.28;5198189;55;1139005;-79
2021/05/31 09:07:03;;;;;;;3.77;1.63;;;;;;;17.71;54.06;101481.45;5212055;55;1138874;-75
2021/05/31 09:12:10;;;;;;;2.67;1.60;;;;;;;17.71;54.06;101481.45;5212288;55;1139065;-76
2021/05/31 09:17:29;;;;;;;3.87;1.70;;;;;;;17.92;53.30;101480.77;5215912;55;1138971;-77
2021/05/31 09:22:49;;;;;;;3.87;1.95;;;;;;;18.03;53.26;101470.87;5200786;55;1139030;-75
2021/05/31 09:27:55;;;;;;;2.70;1.60;;;;;;;18.11;52.81;101481.23;5212432;55;1138939;-76
2021/05/31 09:33:02;;;;;;;10.43;2.10;;;;;;;18.06;52.29;101471.44;5211940;56;1139219;-75
2021/05/31 09:38:08;;;;;;;4.37;2.00;;;;;;;18.07;52.55;101472.29;5211809;56;1141144;-77
2021/05/31 09:43:16;;;;;;;9.70;1.60;;;;;;;18.08;52.36;101464.61;5212177;55;1139057;-81
2021/05/31 09:48:22;;;;;;;6.32;1.58;;;;;;;18.18;51.06;101473.48;5212211;55;1138889;-75
2021/05/31 09:53:36;;;;;;;6.55;1.30;;;;;;;18.09;50.01;101464.96;5188935;55;1138888;-80
2021/05/31 09:59:04;;;;;;;6.08;1.80;;;;;;;18.32;51.19;101462.30;5212124;55;1138358;-78
2021/05/31 10:04:22;;;;;;;2.27;1.13;;;;;;;18.61;51.41;101457.70;5196542;55;1138485;-82
2021/05/31 10:09:21;;;;;;;9.23;1.60;;;;;;;18.88;51.51;101454.17;5185245;55;1139151;-77
2021/05/31 10:14:27;;;;;;;4.03;1.57;;;;;;;18.97;51.15;101451.91;5185808;55;1138634;-84
2021/05/31 10:19:33;;;;;;;2.72;1.40;;;;;;;19.12;49.03;101448.22;5154760;55;1138811;-77
2021/05/31 10:24:41;;;;;;;5.80;1.82;;;;;;;19.31;50.25;101448.59;5185357;55;1138564;-76
2021/05/31 10:29:47;;;;;;;4.08;2.70;;;;;;;19.38;49.38;101447.48;5185576;55;1138952;-80
2021/05/31 10:34:55;;;;;;;3.25;1.50;;;;;;;19.49;50.20;101443.22;5185695;55;1138620;-78
2021/05/31 10:40:11;;;;;;;3.87;1.47;;;;;;;19.71;49.03;101437.38;5185704;55;1138634;-82
2021/05/31 10:45:27;;;;;;;10.45;2.80;;;;;;;19.92;48.77;101419.59;5185737;55;1138731;-82
2021/05/31 10:50:51;;;;;;;2.20;1.42;;;;;;;20.01;47.94;101415.45;5185485;55;1140573;-79
2021/05/31 10:56:04;;;;;;;4.78;1.67;;;;;;;20.24;48.88;101423.83;5185694;55;1138433;-77
2021/05/31 11:01:14;;;;;;;5.75;1.57;;;;;;;20.37;47.05;101419.38;5185500;55;1138887;-81
2021/05/31 11:06:26;;;;;;;4.50;1.35;;;;;;;20.55;47.78;101405.86;5204267;55;1138976;-75
2021/05/31 11:11:42;;;;;;;2.80;1.13;;;;;;;20.73;47.18;101395.00;5212284;56;1139129;-74
2021/05/31 11:17:01;;;;;;;3.10;1.47;;;;;;;20.82;46.49;101388.63;5187967;55;1138884;-80
2021/05/31 11:22:27;;;;;;;10.18;2.10;;;;;;;20.92;45.05;101382.63;5210515;55;1139050;-77
2021/05/31 11:27:41;;;;;;;2.20;1.65;;;;;;;20.97;45.64;101386.48;5211766;55;1141182;-81
2021/05/31 11:32:47;;;;;;;4.95;1.52;;;;;;;20.94;44.29;101385.45;5211546;55;1139356;-80
2021/05/31 11:37:54;;;;;;;9.00;1.75;;;;;;;21.05;44.07;101383.81;5211746;56;1138354;-80
2021/05/31 11:43:04;;;;;;;5.70;1.67;;;;;;;21.15;43.83;101383.66;5193349;56;1139334;-78
2021/05/31 11:48:18;;;;;;;8.13;1.30;;;;;;;21.14;43.85;101379.78;5211900;55;1138856;-78
2021/05/31 11:53:24;;;;;;;3.42;1.10;;;;;;;21.26;43.13;101373.93;5210009;56;1138896;-81
2021/05/31 11:58:30;;;;;;;15.97;1.97;;;;;;;21.43;44.35;101373.43;5194678;55;1141993;-79
2021/05/31 12:03:37;;;;;;;1.95;1.20;;;;;;;21.57;44.14;101366.52;5211163;55;1141111;-78
2021/05/31 12:08:43;;;;;;;4.45;2.08;;;;;;;21.65;41.47;101362.48;5189313;55;1139200;-79
2021/05/31 12:13:50;;;;;;;5.28;1.30;;;;;;;21.73;42.30;101359.27;5186030;55;1139008;-82
2021/05/31 12:18:55;;;;;;;9.85;1.22;;;;;;;21.73;42.30;101359.27;5172141;55;1138497;-73
2021/05/31 12:24:02;;;;;;;8.27;1.30;;;;;;;21.63;42.22;101348.35;5186050;55;1138427;-75
2021/05/31 12:29:14;;;;;;;2.30;1.17;;;;;;;21.62;42.41;101349.36;5173084;55;1138631;-77
2021/05/31 12:34:28;;;;;;;2.80;1.30;;;;;;;21.74;42.13;101334.02;5151806;55;1139043;-77
2021/05/31 12:39:35;;;;;;;3.05;1.15;;;;;;;21.84;40.87;101335.20;5164501;55;1138879;-74
2021/05/31 12:44:42;;;;;;;6.53;1.22;;;;;;;21.87;41.04;101329.94;5186148;55;1138937;-86
2021/05/31 12:49:52;;;;;;;4.33;1.25;;;;;;;21.65;41.13;101321.59;5185977;55;1138865;-82
2021/05/31 12:55:27;;;;;;;1.80;1.17;;;;;;;21.52;40.34;101327.18;5185798;55;1139522;-79
2021/05/31 13:00:34;;;;;;;3.30;1.40;;;;;;;21.49;41.52;101320.78;5186213;55;1139143;-79
2021/05/31 13:05:50;;;;;;;1.27;1.12;;;;;;;21.43;39.72;101313.38;5186282;55;1139159;-79
2021/05/31 13:10:56;;;;;;;2.98;1.02;;;;;;;21.49;41.29;101312.20;5209643;55;1139404;-78
2021/05/31 13:16:08;;;;;;;4.17;1.47;;;;;;;21.70;41.98;101304.41;5212161;55;1139099;-77
2021/05/31 13:21:20;;;;;;;7.55;1.40;;;;;;;22.04;41.51;101300.63;5212200;55;1139137;-81
2021/05/31 13:26:25;;;;;;;1.33;1.23;;;;;;;22.24;37.89;101293.80;5212106;55;1139045;-82
2021/05/31 13:31:33;;;;;;;2.80;1.15;;;;;;;22.20;36.85;101285.73;5212217;56;1138870;-82
2021/05/31 13:36:38;;;;;;;5.42;1.10;;;;;;;22.20;37.68;101277.66;5212568;56;1138931;-76
2021/05/31 13:41:54;;;;;;;1.92;1.27;;;;;;;22.30;38.75;101270.20;5211868;55;1138465;-84
2021/05/31 13:46:59;;;;;;;3.47;1.35;;;;;;;22.49;39.08;101267.55;5211978;55;1138833;-86
2021/05/31 13:52:06;;;;;;;4.42;1.10;;;;;;;22.28;37.26;101267.35;5212035;56;1138533;-80
2021/05/31 13:57:12;;;;;;;5.45;1.20;;;;;;;22.16;37.63;101256.61;5212122;55;1138587;-84
2021/05/31 14:02:20;;;;;;;6.03;1.22;;;;;;;22.29;39.64;101258.25;5212092;56;1138720;-88
2021/05/31 14:07:25;;;;;;;6.45;1.07;;;;;;;22.52;40.13;101254.22;5213986;55;1138743;-79
2021/05/31 14:12:31;;;;;;;4.87;1.30;;;;;;;22.64;38.57;101252.78;5187609;55;1138787;-80
2021/05/31 14:17:38;;;;;;;4.58;1.00;;;;;;;22.60;37.66;101244.23;5185796;55;1139062;-81
2021/05/31 14:22:45;;;;;;;3.42;1.27;;;;;;;22.69;38.90;101239.61;5185764;55;1138988;-85
2021/05/31 14:28:01;;;;;;;2.67;1.20;;;;;;;22.61;37.81;101237.80;5184163;55;1138375;-84
2021/05/31 14:33:05;;;;;;;1.15;1.02;;;;;;;22.67;39.27;101237.59;5184689;55;1138434;-77
2021/05/31 14:38:12;;;;;;;2.77;1.00;;;;;;;22.84;38.86;101222.16;5184220;55;1138404;-80
2021/05/31 14:43:17;;;;;;;3.08;1.62;;;;;;;22.96;38.57;101226.93;5185642;55;1138393;-79
2021/05/31 14:48:25;;;;;;;3.22;1.15;;;;;;;22.83;36.38;101218.62;5165399;55;1138883;-80
2021/05/31 14:53:31;;;;;;;1.82;1.10;;;;;;;22.59;36.58;101224.19;5184965;55;1138655;-81
2021/05/31 14:58:38;;;;;;;10.40;1.98;;;;;;;22.65;37.57;101220.75;5184124;55;1139133;-77
2021/05/31 15:03:45;;;;;;;26.52;2.83;;;;;;;22.80;37.27;101211.73;5184298;55;1140992;-79
2021/05/31 15:08:52;;;;;;;7.83;1.62;;;;;;;22.87;38.30;101209.66;5183649;55;1141169;-77
2021/05/31 15:13:58;;;;;;;9.15;1.77;;;;;;;22.95;37.67;101201.48;5184191;55;1139044;-76
2021/05/31 15:19:05;;;;;;;6.95;1.17;;;;;;;23.02;37.71;101202.44;5184600;55;1139119;-77
2021/05/31 15:24:10;;;;;;;3.00;1.40;;;;;;;23.01;36.95;101196.71;5185451;55;1138903;-79
2021/05/31 15:29:17;;;;;;;2.83;1.30;;;;;;;22.98;36.91;101186.28;5185348;55;1138943;-80
2021/05/31 15:34:23;;;;;;;2.60;1.10;;;;;;;22.94;37.12;101183.61;5199261;55;1138926;-79
2021/05/31 15:39:29;;;;;;;6.35;1.42;;;;;;;22.94;36.64;101173.66;5185088;55;1138907;-78
2021/05/31 15:44:38;;;;;;;2.75;1.42;;;;;;;22.90;36.97;101179.63;5185856;55;1139125;-82
2021/05/31 15:49:43;;;;;;;12.53;1.72;;;;;;;22.91;36.69;101180.80;5185807;55;1138933;-87
2021/05/31 15:54:49;;;;;;;6.30;1.50;;;;;;;22.94;36.57;101176.87;5185540;55;1141019;-84
2021/05/31 15:59:55;;;;;;;7.83;1.30;;;;;;;22.97;37.57;101181.91;5185894;55;1138957;-78
2021/05/31 16:05:01;;;;;;;3.12;1.37;;;;;;;23.05;36.77;101169.70;5186161;55;1138762;-77
2021/05/31 16:10:09;;;;;;;6.33;5.17;;;;;;;23.18;36.32;101159.61;5185884;55;1139232;-74
2021/05/31 16:15:15;;;;;;;4.85;2.15;;;;;;;23.18;36.32;101159.61;5206871;55;1139067;-75
2021/05/31 16:20:21;;;;;;;4.62;1.52;;;;;;;23.08;35.66;101166.61;5191640;56;1139125;-81
2021/05/31 16:25:27;;;;;;;7.92;1.90;;;;;;;22.98;35.34;101160.65;5126306;55;1138817;-82
2021/05/31 16:30:34;;;;;;;1.75;1.12;;;;;;;22.97;35.95;101158.97;5125602;55;1139175;-76
2021/05/31 16:35:41;;;;;;;7.22;1.22;;;;;;;22.87;35.32;101156.55;5125463;55;1138952;-87
2021/05/31 16:40:47;;;;;;;7.05;1.67;;;;;;;22.77;35.83;101151.40;5125384;56;1138871;-79
2021/05/31 16:45:54;;;;;;;8.85;1.65;;;;;;;22.69;35.64;101149.27;5125596;56;1138902;-78
2021/05/31 16:51:08;;;;;;;5.25;2.35;;;;;;;22.63;36.11;101149.47;5125473;55;1139103;-81
2021/05/31 16:56:08;;;;;;;12.85;2.47;;;;;;;22.59;35.87;101144.66;5124812;56;1138914;-77
2021/05/31 17:01:14;;;;;;;4.22;1.77;;;;;;;22.54;36.96;101149.74;5170407;55;1141184;-75
2021/05/31 17:06:27;;;;;;;18.55;1.95;;;;;;;22.57;36.79;101148.87;5211856;55;1138805;-80
2021/05/31 17:22:14;;;;;;;3.02;1.65;;;;;;;22.27;37.30;101149.28;5211405;55;1139089;-78
2021/05/31 17:27:22;;;;;;;6.55;1.52;;;;;;;22.16;36.67;101154.23;5211392;55;1138693;-75
2021/05/31 17:32:29;;;;;;;8.80;1.55;;;;;;;22.07;36.68;101153.45;5211440;55;1138839;-84
2021/05/31 17:37:35;;;;;;;8.78;1.80;;;;;;;22.02;36.79;101145.06;5211262;55;1138894;-81
2021/05/31 17:42:48;;;;;;;4.43;1.40;;;;;;;22.02;36.93;101144.55;5211481;55;1138616;-82
2021/05/31 17:47:54;;;;;;;3.55;1.25;;;;;;;22.05;36.59;101139.33;5211323;56;1138624;-79
2021/05/31 17:52:59;;;;;;;4.47;1.37;;;;;;;;;;5211425;56;1139098;-85
2021/05/31 17:58:05;;;;;;;2.58;1.30;;;;;;;21.87;37.47;101136.88;5124261;56;817581;-82
2021/05/31 18:03:14;;;;;;;7.65;1.70;;;;;;;21.70;37.82;101132.08;5211317;55;1136523;-82
2021/05/31 18:08:20;;;;;;;6.58;1.20;;;;;;;21.55;38.00;101135.19;5211155;56;1138558;-78
2021/05/31 18:13:26;;;;;;;12.13;2.12;;;;;;;21.46;38.03;101132.21;5210820;56;1139048;-79
2021/05/31 18:18:32;;;;;;;12.20;6.23;;;;;;;21.43;38.78;101129.02;5185223;55;1148296;-80
2021/05/31 18:23:39;;;;;;;22.10;12.55;;;;;;;21.42;38.15;101125.49;5181002;55;1141175;-75
2021/05/31 18:28:45;;;;;;;22.00;4.33;;;;;;;21.44;38.22;101125.32;5180735;55;1143050;-82
2021/05/31 18:33:58;;;;;;;28.77;6.17;;;;;;;21.37;39.68;101122.51;5179904;55;1140739;-76
2021/05/31 18:39:07;;;;;;;47.38;12.88;;;;;;;21.29;40.42;101119.83;5094516;56;1141236;-75
2021/05/31 18:44:18;;;;;;;26.82;10.85;;;;;;;21.14;41.02;101118.34;5094746;56;1143353;-80
2021/05/31 18:49:25;;;;;;;89.72;46.45;;;;;;;20.76;41.68;101123.99;5094851;56;1143084;-79
2021/05/31 18:54:31;;;;;;;68.00;35.00;;;;;;;20.46;42.60;101128.22;5095037;56;1143227;-79
2021/05/31 18:59:39;;;;;;;70.35;26.95;;;;;;;20.48;43.44;101128.02;5094758;56;1143253;-74
2021/05/31 19:04:46;;;;;;;91.95;29.27;;;;;;;20.46;44.23;101121.50;5095730;56;1143372;-77
2021/05/31 19:09:52;;;;;;;51.35;20.08;;;;;;;20.41;44.88;101128.37;5095734;56;1143330;-80
2021/05/31 19:14:57;;;;;;;56.30;22.32;;;;;;;20.16;45.25;101133.71;5141296;55;1143138;-75
2021/05/31 19:20:07;;;;;;;26.93;10.88;;;;;;;20.09;46.12;101139.89;5206134;55;1143091;-78
2021/05/31 19:25:14;;;;;;;19.75;5.42;;;;;;;19.99;46.56;101142.24;5212187;55;1143126;-79
2021/05/31 19:30:21;;;;;;;22.30;9.73;;;;;;;19.86;47.05;101149.91;5212387;56;1141026;-80
2021/05/31 19:35:28;;;;;;;30.68;12.70;;;;;;;19.49;47.47;101144.94;5210156;56;1255540;-80
2021/05/31 19:40:42;;;;;;;23.03;10.30;;;;;;;19.06;48.24;101147.20;5211895;55;1143087;-80
2021/05/31 19:45:48;;;;;;;62.80;23.25;;;;;;;18.89;49.24;101145.42;5211830;55;1143115;-75
2021/05/31 19:51:26;;;;;;;23.38;9.08;;;;;;;18.94;49.84;101141.77;5199887;55;1143478;-77
2021/05/31 19:56:21;;;;;;;23.00;7.75;;;;;;;18.94;49.88;101147.14;5155740;56;1141072;-79
2021/05/31 20:01:15;;;;;;;31.52;10.98;;;;;;;18.91;50.16;101143.42;5152169;56;1141422;-76
2021/05/31 20:06:24;;;;;;;67.92;20.00;;;;;;;18.82;50.04;101138.98;5159800;55;1143239;-79
2021/05/31 20:11:29;;;;;;;63.45;15.95;;;;;;;18.70;50.08;101151.81;5105463;56;1142610;-76
2021/05/31 20:16:35;;;;;;;24.90;10.17;;;;;;;18.46;50.06;101158.30;5132688;56;1147720;-79
2021/05/31 20:21:42;;;;;;;18.00;8.83;;;;;;;17.80;50.95;101162.64;5165290;55;1152280;-79
2021/05/31 20:26:47;;;;;;;13.40;6.50;;;;;;;17.32;52.33;101162.84;5125417;56;1140677;-80
2021/05/31 20:31:54;;;;;;;19.47;6.23;;;;;;;17.07;53.12;101155.00;5125315;56;1140555;-76
2021/05/31 20:37:00;;;;;;;16.50;5.67;;;;;;;17.22;53.80;101150.38;5125590;56;1140990;-76
2021/05/31 20:42:07;;;;;;;9.20;5.50;;;;;;;17.16;53.70;101144.75;5125218;56;1141145;-75
2021/05/31 20:47:13;;;;;;;47.57;20.40;;;;;;;17.24;54.06;101147.55;5125399;56;1138966;-78
2021/05/31 20:52:27;;;;;;;21.40;10.27;;;;;;;17.33;54.22;101148.49;5125154;56;1143284;-78
2021/05/31 20:57:29;;;;;;;20.17;10.10;;;;;;;17.43;54.35;101136.75;5125467;56;1143426;-78
2021/05/31 21:02:35;;;;;;;18.10;8.27;;;;;;;17.50;54.18;101141.02;5158888;56;1143293;-77
2021/05/31 21:08:03;;;;;;;10.25;4.70;;;;;;;17.40;53.86;101133.06;5144031;56;1141190;-80
2021/05/31 21:13:13;;;;;;;7.77;5.13;;;;;;;16.63;54.97;101134.64;5102061;56;1140615;-77
2021/05/31 21:18:26;;;;;;;12.17;6.00;;;;;;;16.63;54.97;101134.64;5148392;56;1138483;-80
2021/05/31 21:23:33;;;;;;;;;;;;;;;16.61;55.47;101133.91;5143889;56;1140552;-79
2021/05/31 21:28:41;;;;;;;25.75;9.70;;;;;;;16.57;55.74;101134.33;5150235;56;976269;-80
2021/05/31 21:33:47;;;;;;;57.27;22.02;;;;;;;16.47;55.85;101127.67;5138330;56;1138715;-79
2021/05/31 21:38:56;;;;;;;71.07;22.07;;;;;;;16.59;56.40;101126.52;5133663;56;1142897;-77
2021/05/31 21:44:01;;;;;;;58.13;21.97;;;;;;;16.71;56.21;101120.55;5137390;56;1142948;-77
2021/05/31 21:49:07;;;;;;;36.47;16.33;;;;;;;16.79;56.07;101120.20;5119924;56;1142926;-79
2021/05/31 21:54:13;;;;;;;19.17;9.00;;;;;;;16.79;55.80;101126.03;5098679;56;1143168;-74
2021/05/31 21:59:20;;;;;;;19.67;9.73;;;;;;;16.81;55.79;101118.69;5098621;56;1140898;-79
2021/05/31 22:04:30;;;;;;;26.13;11.80;;;;;;;16.81;55.77;101114.69;5098881;56;1140804;-80
2021/05/31 22:09:39;;;;;;;14.40;6.23;;;;;;;16.81;55.91;101118.69;5099323;56;1142716;-77
2021/05/31 22:14:45;;;;;;;21.23;11.10;;;;;;;16.76;55.78;101117.81;5099102;56;1150263;-75
2021/05/31 22:19:58;;;;;;;26.80;13.63;;;;;;;16.71;55.86;101119.22;5098403;56;1143166;-77
2021/05/31 22:25:04;;;;;;;24.33;12.03;;;;;;;16.63;56.03;101117.77;5161214;56;1143283;-77
2021/05/31 22:35:39;;;;;;;91.37;45.23;;;;;;;16.01;55.67;101141.72;5169902;56;1145105;-76
2021/05/31 22:40:52;;;;;;;48.83;30.63;;;;;;;15.62;57.45;101130.95;5181100;56;1152157;-75
2021/05/31 22:56:38;;;;;;;29.50;12.73;;;;;;;15.55;58.40;101130.30;5181267;56;1143067;-75
2021/05/31 23:17:34;;;;;;;48.53;18.40;;;;;;;15.22;58.39;101110.11;5178520;56;1141036;-80
2021/05/31 23:22:40;;;;;;;38.78;15.68;;;;;;;15.07;58.59;101098.98;5166018;56;1143027;-75
2021/05/31 23:27:46;;;;;;;31.70;14.47;;;;;;;15.03;58.73;101094.39;5158382;56;1143305;-78
2021/05/31 23:32:53;;;;;;;40.77;14.50;;;;;;;14.95;58.78;101097.39;5147891;56;1142891;-80
2021/05/31 23:37:59;;;;;;;51.77;20.03;;;;;;;14.88;58.71;101089.07;5147312;56;1142927;-80
2021/05/31 23:43:06;;;;;;;35.63;16.80;;;;;;;14.82;59.11;101083.45;5147075;56;1142726;-82
2021/05/31 23:48:12;;;;;;;57.87;21.53;;;;;;;14.77;59.39;101085.17;5147321;56;1142853;-77
2021/05/31 23:53:18;;;;;;;54.77;23.70;;;;;;;14.73;59.33;101077.92;5147215;56;1142685;-75
2021/05/31 23:58:24;;;;;;;33.10;15.27;;;;;;;14.75;59.49;101069.80;5147236;56;1142528;-74
